Time;durP1;ratioP1;P1;durP2;ratioP2;P2;SDS_P1;SDS_P2;PMS_P1;PMS_P2;Temp;Humidity;BMP_temperature;BMP_pressure;BME280_temperature;BME280_humidity;BME280_pressure;Samples;Min_cycle;Max_cycle;Signal;HPM_P1;HPM_P2
2023/08/21 00:00:07;;;;;;;;;;;;;;;;;;5034665;28;19917;-82
2023/08/21 00:02:54;;;;;;;;;;;;;;;;;;5026231;28;19967;-81
2023/08/21 00:05:40;;;;;;;;;;;;;;;;;;5021539;28;19928;-80
2023/08/21 00:08:27;;;;;;;;;;;;;;;;;;5018263;28;19936;-82
2023/08/21 00:11:13;;;;;;;;;;;;;;;;;;5024856;28;20308;-81
2023/08/21 00:14:00;;;;;;;;;;;;;;;;;;5019147;28;19921;-81
2023/08/21 00:16:46;;;;;;;;;;;;;;;;;;5025430;28;19924;-81
2023/08/21 00:19:33;;;;;;;;;;;;;;;;;;5026750;28;19925;-81
2023/08/21 00:22:19;;;;;;;;;;;;;;;;;;5022207;28;19920;-81
2023/08/21 00:25:05;;;;;;;;;;;;;;;;;;5015127;28;19928;-81
2023/08/21 00:27:52;;;;;;;;;;;;;;;;;;5014243;28;20716;-80
2023/08/21 00:30:38;;;;;;;;;;;;;;;;;;5014283;28;19921;-80
2023/08/21 00:33:25;;;;;;;;;;;;;;;;;;5018527;28;19921;-81
2023/08/21 00:36:11;;;;;;;;;;;;;;;;;;5027185;28;19913;-81
2023/08/21 00:38:58;;;;;;;;;;;;;;;;;;5022546;28;19926;-81
2023/08/21 00:41:44;;;;;;;;;;;;;;;;;;5021042;28;19921;-81
2023/08/21 00:44:31;;;;;;;;;;;;;;;;;;5024368;28;19926;-81
2023/08/21 00:47:17;;;;;;;;;;;;;;;;;;5015054;28;19944;-81
2023/08/21 00:50:04;;;;;;;;;;;;;;;;;;5024249;28;19928;-81
2023/08/21 00:52:50;;;;;;;;;;;;;;;;;;5019068;28;19928;-82
2023/08/21 00:55:37;;;;;;;;;;;;;;;;;;5018574;28;20365;-82
2023/08/21 00:58:23;;;;;;;;;;;;;;;;;;5020030;28;19921;-83
2023/08/21 01:01:09;;;;;;;;;;;;;;;;;;5017454;28;20365;-82
2023/08/21 01:03:56;;;;;;;;;;;;;;;;;;5022017;28;19918;-80
2023/08/21 01:06:42;;;;;;;;;;;;;;;;;;5021748;28;19931;-82
2023/08/21 01:09:29;;;;;;;;;;;;;;;;;;5020511;28;20455;-81
2023/08/21 01:12:15;;;;;;;;;;;;;;;;;;5024922;28;19913;-81
2023/08/21 01:15:03;;;;;;;;;;;;;;;;;;5024359;28;19932;-81
2023/08/21 01:17:49;;;;;;;;;;;;;;;;;;5020894;28;19917;-81
2023/08/21 01:20:35;;;;;;;;;;;;;;;;;;5021580;28;19928;-81
2023/08/21 01:23:22;;;;;;;;;;;;;;;;;;5015170;28;20400;-81
2023/08/21 01:26:08;;;;;;;;;;;;;;;;;;5020463;28;19921;-81
2023/08/21 01:28:55;;;;;;;;;;;;;;;;;;5018386;28;19984;-81
2023/08/21 01:31:42;;;;;;;;;;;;;;;;;;5008431;28;20000;-81
2023/08/21 01:34:29;;;;;;;;;;;;;;;;;;5017729;28;19927;-81
2023/08/21 01:37:15;;;;;;;;;;;;;;;;;;5004783;28;19928;-81
2023/08/21 01:40:02;;;;;;;;;;;;;;;;;;5023106;28;19944;-83
2023/08/21 01:42:48;;;;;;;;;;;;;;;;;;5025018;28;20404;-82
2023/08/21 01:45:35;;;;;;;;;;;;;;;;;;5020082;28;19955;-82
2023/08/21 01:48:21;;;;;;;;;;;;;;;;;;5023037;28;20472;-83
2023/08/21 01:51:08;;;;;;;;;;;;;;;;;;5021411;28;19932;-82
2023/08/21 01:53:54;;;;;;;;;;;;;;;;;;5022681;28;20291;-82
2023/08/21 01:56:41;;;;;;;;;;;;;;;;;;5021363;28;19918;-82
2023/08/21 01:59:27;;;;;;;;;;;;;;;;;;5013687;28;19940;-82
2023/08/21 02:02:14;;;;;;;;;;;;;;;;;;5007893;28;19928;-82
2023/08/21 02:05:00;;;;;;;;;;;;;;;;;;5012428;28;20296;-82
2023/08/21 02:07:47;;;;;;;;;;;;;;;;;;5011342;28;19925;-82
2023/08/21 02:10:33;;;;;;;;;;;;;;;;;;5019877;28;20300;-81
2023/08/21 02:13:20;;;;;;;;;;;;;;;;;;5018947;28;19923;-81
2023/08/21 02:16:06;;;;;;;;;;;;;;;;;;5022415;28;19921;-81
2023/08/21 02:18:52;;;;;;;;;;;;;;;;;;5016105;28;19921;-81
2023/08/21 02:21:39;;;;;;;;;;;;;;;;;;5014562;28;19921;-82
2023/08/21 02:24:25;;;;;;;;;;;;;;;;;;5019815;28;19932;-81
2023/08/21 02:27:12;;;;;;;;;;;;;;;;;;5016028;28;19953;-81
2023/08/21 02:29:58;;;;;;;;;;;;;;;;;;5023270;28;19917;-81
2023/08/21 02:32:45;;;;;;;;;;;;;;;;;;5024869;28;20379;-78
2023/08/21 02:35:31;;;;;;;;;;;;;;;;;;5024552;28;19917;-80
2023/08/21 02:38:18;;;;;;;;;;;;;;;;;;5013470;28;19925;-81
2023/08/21 02:41:04;;;;;;;;;;;;;;;;;;5017293;28;19937;-80
2023/08/21 02:43:51;;;;;;;;;;;;;;;;;;5024162;28;19931;-79
2023/08/21 02:46:37;;;;;;;;;;;;;;;;;;5021891;28;20391;-80
2023/08/21 02:49:24;;;;;;;;;;;;;;;;;;5016806;28;19933;-79
2023/08/21 02:52:10;;;;;;;;;;;;;;;;;;5040777;28;19913;-80
2023/08/21 02:54:57;;;;;;;;;;;;;;;;;;5018776;28;19932;-81
2023/08/21 02:57:44;;;;;;;;;;;;;;;;;;5018751;28;19939;-82
2023/08/21 03:00:30;;;;;;;;;;;;;;;;;;5021023;28;19925;-81
2023/08/21 03:03:17;;;;;;;;;;;;;;;;;;5015011;28;19936;-81
2023/08/21 03:06:03;;;;;;;;;;;;;;;;;;5017452;28;19924;-81
2023/08/21 03:08:50;;;;;;;;;;;;;;;;;;5004860;28;19957;-81
2023/08/21 03:11:36;;;;;;;;;;;;;;;;;;5014532;28;19925;-81
2023/08/21 03:14:23;;;;;;;;;;;;;;;;;;5029645;28;20305;-81
2023/08/21 03:17:09;;;;;;;;;;;;;;;;;;5018470;28;19967;-82
2023/08/21 03:19:56;;;;;;;;;;;;;;;;;;5010663;28;19917;-81
2023/08/21 03:22:42;;;;;;;;;;;;;;;;;;5012734;28;19921;-80
2023/08/21 03:25:29;;;;;;;;;;;;;;;;;;5014929;28;20410;-81
2023/08/21 03:28:15;;;;;;;;;;;;;;;;;;5009268;28;19929;-81
2023/08/21 03:31:02;;;;;;;;;;;;;;;;;;5016095;28;19917;-77
2023/08/21 03:33:48;;;;;;;;;;;;;;;;;;5017196;28;19925;-78
2023/08/21 03:36:37;;;;;;;;;;;;;;;;;;5023405;28;19927;-78
2023/08/21 03:39:23;;;;;;;;;;;;;;;;;;5019081;28;19917;-79
2023/08/21 03:42:09;;;;;;;;;;;;;;;;;;5018907;28;19924;-78
2023/08/21 03:44:56;;;;;;;;;;;;;;;;;;5023614;28;20363;-78
2023/08/21 03:47:42;;;;;;;;;;;;;;;;;;5020481;28;20439;-78
2023/08/21 03:50:29;;;;;;;;;;;;;;;;;;5021026;28;19925;-79
2023/08/21 03:53:15;;;;;;;;;;;;;;;;;;5022582;28;20011;-78
2023/08/21 03:56:02;;;;;;;;;;;;;;;;;;5020754;28;19921;-78
2023/08/21 03:58:48;;;;;;;;;;;;;;;;;;5017660;28;19917;-79
2023/08/21 04:01:35;;;;;;;;;;;;;;;;;;5018926;28;19925;-78
2023/08/21 04:04:21;;;;;;;;;;;;;;;;;;5025578;28;19921;-77
2023/08/21 04:07:08;;;;;;;;;;;;;;;;;;5024370;28;19925;-77
2023/08/21 04:09:54;;;;;;;;;;;;;;;;;;5025733;28;19931;-77
2023/08/21 04:12:41;;;;;;;;;;;;;;;;;;5026628;28;19913;-78
2023/08/21 04:15:27;;;;;;;;;;;;;;;;;;5023531;28;20217;-77
2023/08/21 04:18:13;;;;;;;;;;;;;;;;;;5016737;28;19924;-78
2023/08/21 04:21:00;;;;;;;;;;;;;;;;;;5019563;28;19921;-78
2023/08/21 04:23:47;;;;;;;;;;;;;;;;;;5041874;28;19923;-78
2023/08/21 04:26:33;;;;;;;;;;;;;;;;;;5031531;28;19922;-78
2023/08/21 04:29:20;;;;;;;;;;;;;;;;;;5024739;28;19921;-77
2023/08/21 04:32:06;;;;;;;;;;;;;;;;;;5022143;28;19917;-78
2023/08/21 04:34:53;;;;;;;;;;;;;;;;;;5022155;28;19947;-78
2023/08/21 04:37:39;;;;;;;;;;;;;;;;;;5027630;28;19917;-78
2023/08/21 04:40:26;;;;;;;;;;;;;;;;;;5019711;28;19921;-78
2023/08/21 04:43:12;;;;;;;;;;;;;;;;;;5019083;28;19928;-79
2023/08/21 04:45:59;;;;;;;;;;;;;;;;;;5020989;28;19928;-79
2023/08/21 04:48:45;;;;;;;;;;;;;;;;;;5023331;28;19929;-79
2023/08/21 04:51:32;;;;;;;;;;;;;;;;;;5033152;28;19917;-84
2023/08/21 04:54:18;;;;;;;;;;;;;;;;;;5036684;28;19921;-78
2023/08/21 04:57:05;;;;;;;;;;;;;;;;;;5021091;28;20318;-78
2023/08/21 04:59:51;;;;;;;;;;;;;;;;;;5036538;28;19921;-79
2023/08/21 05:02:37;;;;;;;;;;;;;;;;;;5035205;28;19955;-80
2023/08/21 05:05:24;;;;;;;;;;;;;;;;;;5028948;28;19932;-80
2023/08/21 05:08:11;;;;;;;;;;;;;;;;;;5037501;28;19929;-79
2023/08/21 05:10:57;;;;;;;;;;;;;;;;;;5042196;28;19917;-80
2023/08/21 05:13:44;;;;;;;;;;;;;;;;;;5048634;28;19921;-80
2023/08/21 05:16:30;;;;;;;;;;;;;;;;;;5046365;28;19968;-80
2023/08/21 05:19:17;;;;;;;;;;;;;;;;;;5045785;28;19917;-79
2023/08/21 05:22:03;;;;;;;;;;;;;;;;;;5040547;28;19918;-80
2023/08/21 05:24:50;;;;;;;;;;;;;;;;;;5027666;28;20388;-80
2023/08/21 05:27:36;;;;;;;;;;;;;;;;;;5019208;28;19932;-79
2023/08/21 05:30:23;;;;;;;;;;;;;;;;;;5011888;28;20293;-78
2023/08/21 05:33:09;;;;;;;;;;;;;;;;;;5022266;28;19925;-78
2023/08/21 05:35:55;;;;;;;;;;;;;;;;;;5019868;28;19944;-79
2023/08/21 05:38:42;;;;;;;;;;;;;;;;;;5022318;28;19925;-80
2023/08/21 05:41:28;;;;;;;;;;;;;;;;;;5013597;28;20338;-79
2023/08/21 05:44:15;;;;;;;;;;;;;;;;;;5025337;28;19937;-79
2023/08/21 05:47:01;;;;;;;;;;;;;;;;;;5023911;28;19925;-79
2023/08/21 05:49:48;;;;;;;;;;;;;;;;;;5025203;28;19925;-79
2023/08/21 05:52:35;;;;;;;;;;;;;;;;;;5007060;28;19935;-79
2023/08/21 05:55:21;;;;;;;;;;;;;;;;;;5016978;28;19913;-79
2023/08/21 05:58:08;;;;;;;;;;;;;;;;;;5024018;28;19921;-79
2023/08/21 06:00:54;;;;;;;;;;;;;;;;;;5020613;28;19924;-81
2023/08/21 06:03:40;;;;;;;;;;;;;;;;;;5017824;28;20478;-79
2023/08/21 06:06:27;;;;;;;;;;;;;;;;;;5017504;28;19921;-80
2023/08/21 06:09:13;;;;;;;;;;;;;;;;;;5023356;28;19929;-79
2023/08/21 06:12:03;;;;;;;;;;;;;;;;;;5022249;28;19928;-79
2023/08/21 06:14:49;;;;;;;;;;;;;;;;;;5008016;28;19916;-79
2023/08/21 06:17:36;;;;;;;;;;;;;;;;;;5019003;28;19948;-79
2023/08/21 06:20:22;;;;;;;;;;;;;;;;;;5017002;28;19943;-79
2023/08/21 06:23:10;;;;;;;;;;;;;;;;;;5017980;28;19917;-79
2023/08/21 06:25:56;;;;;;;;;;;;;;;;;;5015697;28;19932;-78
2023/08/21 06:28:43;;;;;;;;;;;;;;;;;;5019319;28;19935;-80
2023/08/21 06:31:29;;;;;;;;;;;;;;;;;;5018654;28;20410;-80
2023/08/21 06:34:16;;;;;;;;;;;;;;;;;;5014550;28;19981;-74
2023/08/21 06:37:02;;;;;;;;;;;;;;;;;;5018398;28;20723;-74
2023/08/21 06:39:49;;;;;;;;;;;;;;;;;;5024059;28;19936;-74
2023/08/21 06:42:36;;;;;;;;;;;;;;;;;;5011398;28;19948;-73
2023/08/21 06:45:23;;;;;;;;;;;;;;;;;;5019345;28;19928;-73
2023/08/21 06:48:09;;;;;;;;;;;;;;;;;;5021843;28;20304;-74
2023/08/21 06:50:56;;;;;;;;;;;;;;;;;;5016078;28;19917;-74
2023/08/21 06:53:42;;;;;;;;;;;;;;;;;;5015762;28;19928;-74
2023/08/21 06:56:29;;;;;;;;;;;;;;;;;;5022186;28;19933;-75
2023/08/21 06:59:15;;;;;;;;;;;;;;;;;;5017101;28;19917;-74
2023/08/21 07:02:02;;;;;;;;;;;;;;;;;;5021926;28;19955;-74
2023/08/21 07:04:49;;;;;;;;;;;;;;;;;;5022996;28;19925;-74
2023/08/21 07:07:35;;;;;;;;;;;;;;;;;;5021344;28;19931;-74
2023/08/21 07:10:22;;;;;;;;;;;;;;;;;;5022167;28;19929;-74
2023/08/21 07:13:08;;;;;;;;;;;;;;;;;;5018263;28;19924;-74
2023/08/21 07:15:55;;;;;;;;;;;;;;;;;;5021512;28;19927;-73
2023/08/21 07:18:41;;;;;;;;;;;;;;;;;;5021998;28;19921;-74
2023/08/21 07:21:28;;;;;;;;;;;;;;;;;;5021981;28;19921;-74
2023/08/21 07:24:14;;;;;;;;;;;;;;;;;;5018612;28;20389;-74
2023/08/21 07:27:01;;;;;;;;;;;;;;;;;;5016954;28;19928;-74
2023/08/21 07:29:47;;;;;;;;;;;;;;;;;;5016241;28;19927;-74
2023/08/21 07:32:34;;;;;;;;;;;;;;;;;;5021531;28;19921;-73
2023/08/21 07:35:20;;;;;;;;;;;;;;;;;;5019167;28;19925;-74
2023/08/21 07:38:07;;;;;;;;;;;;;;;;;;5016450;28;19921;-74
2023/08/21 07:40:53;;;;;;;;;;;;;;;;;;5017428;28;19944;-74
2023/08/21 07:43:40;;;;;;;;;;;;;;;;;;5009339;28;20266;-73
2023/08/21 07:46:26;;;;;;;;;;;;;;;;;;5024190;28;19925;-73
2023/08/21 07:49:13;;;;;;;;;;;;;;;;;;5023459;28;20388;-74
2023/08/21 07:51:59;;;;;;;;;;;;;;;;;;5024747;28;19925;-74
2023/08/21 07:54:45;;;;;;;;;;;;;;;;;;5028005;28;19917;-74
2023/08/21 07:57:32;;;;;;;;;;;;;;;;;;5019433;28;19922;-73
2023/08/21 08:00:19;;;;;;;;;;;;;;;;;;5019754;28;20051;-74
2023/08/21 08:03:08;;;;;;;;;;;;;;;;;;5020346;28;19932;-73
2023/08/21 08:05:54;;;;;;;;;;;;;;;;;;5011067;28;19921;-73
2023/08/21 08:08:41;;;;;;;;;;;;;;;;;;5022698;28;20399;-74
2023/08/21 08:11:27;;;;;;;;;;;;;;;;;;5023143;28;19921;-74
2023/08/21 08:14:14;;;;;;;;;;;;;;;;;;5025562;28;20359;-73
2023/08/21 08:17:00;;;;;;;;;;;;;;;;;;5020768;28;19922;-73
2023/08/21 08:19:47;;;;;;;;;;;;;;;;;;5014315;28;20353;-74
2023/08/21 08:22:33;;;;;;;;;;;;;;;;;;5020855;28;19928;-73
2023/08/21 08:25:20;;;;;;;;;;;;;;;;;;5024107;28;19921;-73
2023/08/21 08:28:06;;;;;;;;;;;;;;;;;;5016569;28;19933;-73
2023/08/21 08:30:53;;;;;;;;;;;;;;;;;;5020322;28;19921;-73
2023/08/21 08:33:39;;;;;;;;;;;;;;;;;;5025835;28;19931;-73
2023/08/21 08:36:25;;;;;;;;;;;;;;;;;;5016739;28;19921;-73
2023/08/21 08:39:12;;;;;;;;;;;;;;;;;;5017734;28;19917;-73
2023/08/21 08:42:02;;;;;;;;;;;;;;;;;;5011013;28;19921;-74
2023/08/21 08:44:48;;;;;;;;;;;;;;;;;;5017583;28;20138;-73
2023/08/21 08:47:34;;;;;;;;;;;;;;;;;;5022797;28;19933;-74
2023/08/21 08:50:21;;;;;;;;;;;;;;;;;;5020444;28;19940;-74
2023/08/21 08:53:08;;;;;;;;;;;;;;;;;;5025374;28;19922;-74
2023/08/21 08:55:54;;;;;;;;;;;;;;;;;;5025702;28;19948;-74
2023/08/21 08:58:42;;;;;;;;;;;;;;;;;;5018737;28;19924;-73
2023/08/21 09:01:29;;;;;;;;;;;;;;;;;;5022627;28;20389;-74
2023/08/21 09:04:15;;;;;;;;;;;;;;;;;;5021227;28;19929;-74
2023/08/21 09:07:01;;;;;;;;;;;;;;;;;;5020988;28;19921;-74
2023/08/21 09:09:52;;;;;;;;;;;;;;;;;;5025032;28;20412;-74
2023/08/21 09:12:39;;;;;;;;;;;;;;;;;;5023867;28;19941;-74
2023/08/21 09:15:25;;;;;;;;;;;;;;;;;;5023624;28;19940;-74
2023/08/21 09:18:12;;;;;;;;;;;;;;;;;;5007732;28;20308;-74
2023/08/21 09:20:58;;;;;;;;;;;;;;;;;;5016488;28;19920;-74
2023/08/21 09:23:45;;;;;;;;;;;;;;;;;;5019653;28;19956;-74
2023/08/21 09:26:32;;;;;;;;;;;;;;;;;;5022731;28;19917;-74
2023/08/21 09:29:18;;;;;;;;;;;;;;;;;;5025762;28;20296;-74
2023/08/21 09:32:05;;;;;;;;;;;;;;;;;;5021204;28;19925;-74
2023/08/21 09:34:51;;;;;;;;;;;;;;;;;;5020709;28;19917;-74
2023/08/21 09:37:38;;;;;;;;;;;;;;;;;;5018548;28;19929;-75
2023/08/21 09:40:24;;;;;;;;;;;;;;;;;;5018284;28;19917;-74
2023/08/21 09:43:11;;;;;;;;;;;;;;;;;;5018088;28;20527;-74
2023/08/21 09:45:58;;;;;;;;;;;;;;;;;;5016791;28;19928;-74
2023/08/21 09:48:45;;;;;;;;;;;;;;;;;;5015760;28;20421;-74
2023/08/21 09:51:31;;;;;;;;;;;;;;;;;;4999982;28;19918;-78
2023/08/21 09:54:18;;;;;;;;;;;;;;;;;;5014271;28;19922;-74
2023/08/21 09:57:04;;;;;;;;;;;;;;;;;;5017611;28;19920;-74
2023/08/21 09:59:51;;;;;;;;;;;;;;;;;;5022200;28;20351;-74
2023/08/21 10:02:37;;;;;;;;;;;;;;;;;;5019846;28;19924;-74
2023/08/21 10:05:24;;;;;;;;;;;;;;;;;;5018080;28;20384;-74
2023/08/21 10:08:10;;;;;;;;;;;;;;;;;;5022437;28;19963;-74
2023/08/21 10:10:57;;;;;;;;;;;;;;;;;;5021472;28;19928;-74
2023/08/21 10:13:43;;;;;;;;;;;;;;;;;;5022886;28;19917;-73
2023/08/21 10:16:30;;;;;;;;;;;;;;;;;;5017540;28;19921;-74
2023/08/21 10:19:16;;;;;;;;;;;;;;;;;;5019344;28;19917;-74
2023/08/21 10:22:03;;;;;;;;;;;;;;;;;;5017325;28;19943;-74
2023/08/21 10:24:49;;;;;;;;;;;;;;;;;;5005553;28;20115;-75
2023/08/21 10:27:37;;;;;;;;;;;;;;;;;;5017052;28;20012;-74
2023/08/21 10:30:23;;;;;;;;;;;;;;;;;;5010874;28;20455;-74
2023/08/21 10:33:10;;;;;;;;;;;;;;;;;;5004180;28;19937;-74
2023/08/21 10:35:56;;;;;;;;;;;;;;;;;;5008023;28;19921;-73
2023/08/21 10:38:43;;;;;;;;;;;;;;;;;;5021678;28;19944;-73
2023/08/21 10:41:29;;;;;;;;;;;;;;;;;;5021361;28;19935;-73
2023/08/21 10:44:16;;;;;;;;;;;;;;;;;;5011920;28;20470;-73
2023/08/21 10:47:02;;;;;;;;;;;;;;;;;;5012979;28;19927;-74
2023/08/21 10:49:49;;;;;;;;;;;;;;;;;;5011593;28;19930;-74
2023/08/21 10:52:35;;;;;;;;;;;;;;;;;;5019621;28;19921;-73
2023/08/21 10:55:22;;;;;;;;;;;;;;;;;;5021703;28;19921;-73
2023/08/21 10:58:11;;;;;;;;;;;;;;;;;;5020300;28;19944;-74
2023/08/21 11:00:58;;;;;;;;;;;;;;;;;;5018601;28;19928;-74
2023/08/21 11:03:44;;;;;;;;;;;;;;;;;;5023632;28;19920;-74
2023/08/21 11:06:31;;;;;;;;;;;;;;;;;;5019406;28;19939;-73
2023/08/21 11:09:17;;;;;;;;;;;;;;;;;;5017867;28;19936;-73
2023/08/21 11:12:04;;;;;;;;;;;;;;;;;;5019160;28;19921;-73
2023/08/21 11:14:50;;;;;;;;;;;;;;;;;;5020719;28;19925;-74
2023/08/21 11:17:37;;;;;;;;;;;;;;;;;;5013698;28;19913;-74
2023/08/21 11:20:23;;;;;;;;;;;;;;;;;;5012465;28;19922;-74
2023/08/21 11:23:10;;;;;;;;;;;;;;;;;;5021793;28;19940;-74
2023/08/21 11:25:56;;;;;;;;;;;;;;;;;;5025702;28;19928;-74
2023/08/21 11:28:43;;;;;;;;;;;;;;;;;;5024180;28;19929;-75
2023/08/21 11:31:29;;;;;;;;;;;;;;;;;;5023108;28;20399;-74
2023/08/21 11:34:16;;;;;;;;;;;;;;;;;;5015110;28;19929;-74
2023/08/21 11:37:02;;;;;;;;;;;;;;;;;;5021913;28;19921;-75
2023/08/21 11:39:50;;;;;;;;;;;;;;;;;;5010905;28;19917;-75
2023/08/21 11:42:36;;;;;;;;;;;;;;;;;;5016934;28;19921;-74
2023/08/21 11:45:22;;;;;;;;;;;;;;;;;;5025608;28;19928;-74
2023/08/21 11:48:09;;;;;;;;;;;;;;;;;;5023069;28;19933;-74
2023/08/21 11:50:55;;;;;;;;;;;;;;;;;;5027876;28;19924;-74
2023/08/21 11:53:44;;;;;;;;;;;;;;;;;;5023672;28;20213;-74
2023/08/21 11:56:30;;;;;;;;;;;;;;;;;;5023502;28;20736;-73
2023/08/21 11:59:17;;;;;;;;;;;;;;;;;;5023296;28;19921;-73
2023/08/21 12:02:03;;;;;;;;;;;;;;;;;;5017061;28;19939;-74
2023/08/21 12:04:50;;;;;;;;;;;;;;;;;;5026790;28;19925;-74
2023/08/21 12:07:36;;;;;;;;;;;;;;;;;;5029198;28;19926;-74
2023/08/21 12:10:23;;;;;;;;;;;;;;;;;;5032547;28;20399;-74
2023/08/21 12:13:09;;;;;;;;;;;;;;;;;;5018179;28;19921;-74
2023/08/21 12:15:56;;;;;;;;;;;;;;;;;;5020216;28;19966;-74
2023/08/21 12:18:42;;;;;;;;;;;;;;;;;;5023515;28;19921;-73
2023/08/21 12:21:28;;;;;;;;;;;;;;;;;;5019901;28;20390;-74
2023/08/21 12:24:15;;;;;;;;;;;;;;;;;;5019855;28;19921;-74
2023/08/21 12:27:01;;;;;;;;;;;;;;;;;;5016350;28;19936;-74
2023/08/21 12:29:48;;;;;;;;;;;;;;;;;;5009073;28;20385;-74
2023/08/21 12:32:34;;;;;;;;;;;;;;;;;;5013563;28;19920;-75
2023/08/21 12:35:21;;;;;;;;;;;;;;;;;;5021472;28;20396;-73
2023/08/21 12:38:07;;;;;;;;;;;;;;;;;;5021443;28;19929;-74
2023/08/21 12:40:54;;;;;;;;;;;;;;;;;;5017399;28;20570;-74
2023/08/21 12:43:40;;;;;;;;;;;;;;;;;;5019293;28;19926;-74
2023/08/21 12:46:27;;;;;;;;;;;;;;;;;;5021833;28;20001;-74
2023/08/21 12:49:14;;;;;;;;;;;;;;;;;;5015336;28;19929;-74
2023/08/21 12:52:00;;;;;;;;;;;;;;;;;;5020079;28;19917;-75
2023/08/21 12:54:47;;;;;;;;;;;;;;;;;;5018050;28;19928;-74
2023/08/21 12:57:34;;;;;;;;;;;;;;;;;;5019395;28;19913;-74
2023/08/21 13:00:20;;;;;;;;;;;;;;;;;;5025002;28;19921;-74
2023/08/21 13:03:08;;;;;;;;;;;;;;;;;;5017851;28;20265;-74
2023/08/21 13:05:54;;;;;;;;;;;;;;;;;;5014397;28;19921;-74
2023/08/21 13:08:41;;;;;;;;;;;;;;;;;;5024013;28;20415;-74
2023/08/21 13:11:29;;;;;;;;;;;;;;;;;;5020949;28;20384;-74
2023/08/21 13:14:15;;;;;;;;;;;;;;;;;;5022476;28;19918;-74
2023/08/21 13:17:02;;;;;;;;;;;;;;;;;;5020351;28;20300;-74
2023/08/21 13:19:49;;;;;;;;;;;;;;;;;;5018695;28;19936;-74
2023/08/21 13:22:35;;;;;;;;;;;;;;;;;;5023601;28;19925;-73
2023/08/21 13:25:22;;;;;;;;;;;;;;;;;;5004025;28;19917;-74
2023/08/21 13:28:08;;;;;;;;;;;;;;;;;;5018336;28;19923;-74
2023/08/21 13:30:55;;;;;;;;;;;;;;;;;;5022180;28;19929;-73
2023/08/21 13:33:41;;;;;;;;;;;;;;;;;;5024440;28;19917;-74
2023/08/21 13:36:28;;;;;;;;;;;;;;;;;;5022048;28;20369;-74
2023/08/21 13:39:15;;;;;;;;;;;;;;;;;;5009935;28;19918;-74
2023/08/21 13:42:02;;;;;;;;;;;;;;;;;;5023843;28;19943;-74
2023/08/21 13:44:48;;;;;;;;;;;;;;;;;;5022846;28;19948;-74
2023/08/21 13:47:35;;;;;;;;;;;;;;;;;;5009668;28;19921;-74
2023/08/21 13:50:21;;;;;;;;;;;;;;;;;;5021640;28;20330;-75
2023/08/21 13:53:08;;;;;;;;;;;;;;;;;;5019912;28;19917;-74
2023/08/21 13:55:54;;;;;;;;;;;;;;;;;;5010699;28;19925;-75
2023/08/21 13:58:41;;;;;;;;;;;;;;;;;;5019976;28;19925;-74
2023/08/21 14:01:27;;;;;;;;;;;;;;;;;;5010303;28;19933;-75
2023/08/21 14:04:14;;;;;;;;;;;;;;;;;;5019499;28;19927;-75
2023/08/21 14:07:00;;;;;;;;;;;;;;;;;;5023768;28;20245;-74
2023/08/21 14:09:47;;;;;;;;;;;;;;;;;;5021958;28;19925;-74
2023/08/21 14:12:33;;;;;;;;;;;;;;;;;;5023970;28;20609;-75
2023/08/21 14:15:20;;;;;;;;;;;;;;;;;;5019702;28;19917;-74
2023/08/21 14:18:06;;;;;;;;;;;;;;;;;;5022509;28;20226;-74
2023/08/21 14:20:53;;;;;;;;;;;;;;;;;;5019234;28;19928;-75
2023/08/21 14:23:40;;;;;;;;;;;;;;;;;;5023303;28;19940;-74
2023/08/21 14:26:26;;;;;;;;;;;;;;;;;;5011876;28;20381;-74
2023/08/21 14:29:13;;;;;;;;;;;;;;;;;;5022348;28;19936;-73
2023/08/21 14:31:59;;;;;;;;;;;;;;;;;;5018499;28;19921;-73
2023/08/21 14:34:47;;;;;;;;;;;;;;;;;;5010919;28;20369;-75
2023/08/21 14:37:33;;;;;;;;;;;;;;;;;;5014322;28;19928;-73
2023/08/21 14:40:19;;;;;;;;;;;;;;;;;;5021663;28;19920;-74
2023/08/21 14:43:06;;;;;;;;;;;;;;;;;;5015174;28;19932;-74
2023/08/21 14:45:53;;;;;;;;;;;;;;;;;;5017727;28;19921;-74
2023/08/21 14:48:39;;;;;;;;;;;;;;;;;;5016975;28;19936;-74
2023/08/21 14:51:26;;;;;;;;;;;;;;;;;;5019174;28;19925;-74
2023/08/21 14:54:12;;;;;;;;;;;;;;;;;;4999700;28;19928;-74
2023/08/21 14:56:59;;;;;;;;;;;;;;;;;;5024108;28;19925;-74
2023/08/21 14:59:45;;;;;;;;;;;;;;;;;;5020245;28;19943;-74
2023/08/21 15:02:32;;;;;;;;;;;;;;;;;;5017629;28;19928;-74
2023/08/21 15:05:18;;;;;;;;;;;;;;;;;;5017226;28;19928;-74
2023/08/21 15:08:05;;;;;;;;;;;;;;;;;;5017919;28;20315;-73
2023/08/21 15:10:51;;;;;;;;;;;;;;;;;;5016146;28;19931;-74
2023/08/21 15:13:38;;;;;;;;;;;;;;;;;;5015772;28;19917;-73
2023/08/21 15:16:24;;;;;;;;;;;;;;;;;;5013778;28;20289;-73
2023/08/21 15:19:11;;;;;;;;;;;;;;;;;;5004579;28;19921;-74
2023/08/21 15:21:57;;;;;;;;;;;;;;;;;;5023746;28;19927;-75
2023/08/21 15:24:44;;;;;;;;;;;;;;;;;;5012560;28;19913;-75
2023/08/21 15:27:31;;;;;;;;;;;;;;;;;;5020278;28;20396;-75
2023/08/21 15:30:17;;;;;;;;;;;;;;;;;;5016609;28;19925;-75
2023/08/21 15:33:03;;;;;;;;;;;;;;;;;;5016029;28;20466;-74
2023/08/21 15:35:50;;;;;;;;;;;;;;;;;;5013699;28;19924;-74
2023/08/21 15:38:37;;;;;;;;;;;;;;;;;;5016439;28;19928;-74
2023/08/21 15:41:23;;;;;;;;;;;;;;;;;;5021248;28;19922;-74
2023/08/21 15:44:09;;;;;;;;;;;;;;;;;;5016305;28;20302;-73
2023/08/21 15:46:56;;;;;;;;;;;;;;;;;;5022760;28;19936;-73
2023/08/21 15:49:42;;;;;;;;;;;;;;;;;;5016605;28;19925;-73
2023/08/21 15:52:29;;;;;;;;;;;;;;;;;;5016198;28;20669;-74
2023/08/21 15:55:15;;;;;;;;;;;;;;;;;;5022000;28;19917;-74
2023/08/21 15:58:02;;;;;;;;;;;;;;;;;;5017460;28;19921;-74
2023/08/21 16:00:49;;;;;;;;;;;;;;;;;;5020880;28;19919;-74
2023/08/21 16:03:36;;;;;;;;;;;;;;;;;;5022632;28;20332;-74
2023/08/21 16:06:22;;;;;;;;;;;;;;;;;;5025338;28;20214;-73
2023/08/21 16:09:08;;;;;;;;;;;;;;;;;;5014155;28;19936;-74
2023/08/21 16:11:55;;;;;;;;;;;;;;;;;;5017699;28;19944;-74
2023/08/21 16:14:41;;;;;;;;;;;;;;;;;;5018434;28;19924;-74
2023/08/21 16:17:28;;;;;;;;;;;;;;;;;;5019482;28;19928;-74
2023/08/21 16:20:15;;;;;;;;;;;;;;;;;;5008524;28;19917;-75
2023/08/21 16:23:02;;;;;;;;;;;;;;;;;;5018886;28;19922;-74
2023/08/21 16:25:48;;;;;;;;;;;;;;;;;;5020931;28;20223;-74
2023/08/21 16:28:34;;;;;;;;;;;;;;;;;;5019392;28;19924;-74
2023/08/21 16:31:21;;;;;;;;;;;;;;;;;;5021624;28;19921;-75
2023/08/21 16:34:07;;;;;;;;;;;;;;;;;;5022721;28;19918;-74
2023/08/21 16:36:54;;;;;;;;;;;;;;;;;;5026040;28;19917;-75
2023/08/21 16:39:40;;;;;;;;;;;;;;;;;;5022462;28;19951;-75
2023/08/21 16:42:27;;;;;;;;;;;;;;;;;;5022125;28;19925;-74
2023/08/21 16:45:15;;;;;;;;;;;;;;;;;;5018044;28;20288;-75
2023/08/21 16:48:02;;;;;;;;;;;;;;;;;;5018941;28;20431;-74
2023/08/21 16:50:48;;;;;;;;;;;;;;;;;;5020194;28;19936;-75
2023/08/21 16:53:35;;;;;;;;;;;;;;;;;;5018721;28;19917;-74
2023/08/21 16:56:21;;;;;;;;;;;;;;;;;;5018554;28;20367;-74
2023/08/21 16:59:08;;;;;;;;;;;;;;;;;;5016486;28;20443;-74
2023/08/21 17:01:54;;;;;;;;;;;;;;;;;;5016235;28;20325;-74
2023/08/21 17:04:41;;;;;;;;;;;;;;;;;;5016718;28;19941;-74
2023/08/21 17:07:28;;;;;;;;;;;;;;;;;;5023283;28;19921;-74
2023/08/21 17:10:14;;;;;;;;;;;;;;;;;;5020433;28;20356;-74
2023/08/21 17:13:01;;;;;;;;;;;;;;;;;;5024052;28;19917;-74
2023/08/21 17:15:47;;;;;;;;;;;;;;;;;;5017169;28;19921;-75
2023/08/21 17:18:34;;;;;;;;;;;;;;;;;;5025503;28;20308;-74
2023/08/21 17:21:20;;;;;;;;;;;;;;;;;;5021239;28;19932;-74
2023/08/21 17:24:07;;;;;;;;;;;;;;;;;;5018437;28;21214;-74
2023/08/21 17:26:53;;;;;;;;;;;;;;;;;;5012264;28;19921;-75
2023/08/21 17:29:40;;;;;;;;;;;;;;;;;;5015409;28;19921;-76
2023/08/21 17:32:26;;;;;;;;;;;;;;;;;;5023482;28;19928;-75
2023/08/21 17:35:13;;;;;;;;;;;;;;;;;;5019138;28;20326;-75
2023/08/21 17:37:59;;;;;;;;;;;;;;;;;;5018624;28;19917;-75
2023/08/21 17:40:46;;;;;;;;;;;;;;;;;;5019840;28;19924;-75
2023/08/21 17:43:33;;;;;;;;;;;;;;;;;;5023577;28;20373;-75
2023/08/21 17:46:20;;;;;;;;;;;;;;;;;;5023635;28;19932;-75
2023/08/21 17:49:06;;;;;;;;;;;;;;;;;;5015876;28;19940;-74
2023/08/21 17:51:53;;;;;;;;;;;;;;;;;;5017144;28;19945;-74
2023/08/21 17:54:39;;;;;;;;;;;;;;;;;;5013391;28;19917;-74
2023/08/21 17:57:26;;;;;;;;;;;;;;;;;;5021267;28;19971;-74
2023/08/21 18:00:12;;;;;;;;;;;;;;;;;;5020447;28;19920;-75
2023/08/21 18:02:59;;;;;;;;;;;;;;;;;;5022049;28;19927;-74
2023/08/21 18:05:46;;;;;;;;;;;;;;;;;;5027835;28;19921;-74
2023/08/21 18:08:32;;;;;;;;;;;;;;;;;;5027958;28;20320;-74
2023/08/21 18:11:18;;;;;;;;;;;;;;;;;;5021528;28;19925;-75
2023/08/21 18:14:05;;;;;;;;;;;;;;;;;;5019552;28;19968;-75
2023/08/21 18:16:51;;;;;;;;;;;;;;;;;;5026552;28;19916;-75
2023/08/21 18:19:38;;;;;;;;;;;;;;;;;;5011619;28;20216;-75
2023/08/21 18:22:24;;;;;;;;;;;;;;;;;;5019144;28;19921;-75
2023/08/21 18:25:11;;;;;;;;;;;;;;;;;;5020950;28;19917;-75
2023/08/21 18:27:57;;;;;;;;;;;;;;;;;;5003225;28;19929;-75
2023/08/21 18:30:44;;;;;;;;;;;;;;;;;;5019265;28;20333;-74
2023/08/21 18:33:30;;;;;;;;;;;;;;;;;;5022694;28;19917;-76
2023/08/21 18:36:17;;;;;;;;;;;;;;;;;;5013631;28;19921;-74
2023/08/21 18:39:03;;;;;;;;;;;;;;;;;;5015464;28;20366;-74
2023/08/21 18:41:50;;;;;;;;;;;;;;;;;;5007487;28;19913;-75
2023/08/21 18:44:36;;;;;;;;;;;;;;;;;;5023941;28;21159;-75
2023/08/21 18:47:24;;;;;;;;;;;;;;;;;;5008265;28;20036;-74
2023/08/21 18:50:10;;;;;;;;;;;;;;;;;;5018667;28;19932;-74
2023/08/21 18:52:57;;;;;;;;;;;;;;;;;;5019107;28;19929;-75
2023/08/21 18:55:43;;;;;;;;;;;;;;;;;;5014065;28;20035;-75